Observation data for Slaton on 11/09/2019      Previous  Date       Current Mesonet Observations  Soil Data  Daily Summary Page  Observations in Plain Language
KSLS 090600Z 23009KT 06/05 A3029 RMK A01 T00610054  RH  097%=      5-min Rain = 0
KSLS 090605Z 23009KT 06/05 A3029 RMK A01 T00600054  RH  097%=      5-min Rain = 0
KSLS 090610Z 23010KT 06/05 A3028 RMK A01 T00600054  RH  097%=      5-min Rain = 0
KSLS 090615Z 23010KT 06/06 A3028 RMK A01 T00610055  RH  097%=      5-min Rain = 0.01
KSLS 090620Z 23010KT 06/06 A3028 RMK A01 T00610055  RH  097%=      5-min Rain = 0
KSLS 090625Z 23010KT 06/05 A3028 RMK A01 T00610054  RH  097%=      5-min Rain = 0
KSLS 090630Z 23009KT 06/05 A3028 RMK A01 T00610054  RH  097%=      5-min Rain = 0
KSLS 090635Z 23008KT 06/05 A3028 RMK A01 T00610054  RH  097%=      5-min Rain = 0
KSLS 090640Z 23008KT 06/05 A3028 RMK A01 T00610054  RH  097%=      5-min Rain = 0
KSLS 090645Z 23009KT 06/06 A3028 RMK A01 T00610055  RH  097%=      5-min Rain = 0
KSLS 090650Z 24009KT 06/06 A3028 RMK A01 T00610055  RH  097%=      5-min Rain = 0
KSLS 090655Z 24009KT 06/06 A3028 RMK A01 T00630056  RH  097%=      5-min Rain = 0
KSLS 090700Z 24009KT 06/06 A3028 RMK A01 T00620055  RH  096%=      5-min Rain = 0
KSLS 090705Z 24009KT 06/05 A3028 RMK A01 T00620054  RH  096%=      5-min Rain = 0
KSLS 090710Z 24009KT 06/05 A3028 RMK A01 T00610054  RH  096%=      5-min Rain = 0
KSLS 090715Z 24009KT 06/05 A3028 RMK A01 T00610053  RH  096%=      5-min Rain = 0
KSLS 090720Z 24009KT 06/05 A3028 RMK A01 T00600053  RH  096%=      5-min Rain = 0
KSLS 090725Z 24008KT 06/05 A3028 RMK A01 T00610053  RH  096%=      5-min Rain = 0
KSLS 090730Z 24008KT 06/05 A3028 RMK A01 T00600052  RH  096%=      5-min Rain = 0
KSLS 090735Z 24008KT 06/05 A3028 RMK A01 T00590052  RH  096%=      5-min Rain = 0
KSLS 090740Z 24008KT 06/05 A3027 RMK A01 T00590051  RH  096%=      5-min Rain = 0
KSLS 090745Z 24008KT 06/05 A3027 RMK A01 T00570050  RH  097%=      5-min Rain = 0
KSLS 090750Z 24008KT 06/05 A3027 RMK A01 T00570050  RH  097%=      5-min Rain = 0
KSLS 090755Z 24008KT 06/05 A3027 RMK A01 T00550049  RH  097%=      5-min Rain = 0
KSLS 090800Z 24008KT 06/05 A3027 RMK A01 T00550049  RH  097%=      5-min Rain = 0
KSLS 090805Z 24008KT 06/05 A3027 RMK A01 T00550049  RH  097%=      5-min Rain = 0
KSLS 090810Z 24009KT 05/05 A3027 RMK A01 T00540048  RH  097%=      5-min Rain = 0
KSLS 090815Z 24009KT 06/05 A3026 RMK A01 T00550049  RH  097%=      5-min Rain = 0
KSLS 090820Z 23009KT 06/05 A3026 RMK A01 T00550049  RH  097%=      5-min Rain = 0
KSLS 090825Z 24009KT 06/05 A3026 RMK A01 T00550049  RH  097%=      5-min Rain = 0
KSLS 090830Z 24008KT 05/05 A3026 RMK A01 T00540049  RH  097%=      5-min Rain = 0
KSLS 090835Z 24009KT 05/05 A3025 RMK A01 T00540049  RH  097%=      5-min Rain = 0
KSLS 090840Z 24008KT 05/05 A3025 RMK A01 T00540048  RH  097%=      5-min Rain = 0
KSLS 090845Z 24008KT 05/05 A3025 RMK A01 T00530048  RH  097%=      5-min Rain = 0
KSLS 090850Z 24008KT 05/05 A3025 RMK A01 T00530048  RH  098%=      5-min Rain = 0
KSLS 090855Z 24007KT 05/05 A3025 RMK A01 T00530048  RH  098%=      5-min Rain = 0
KSLS 090900Z 24008KT 05/05 A3025 RMK A01 T00530047  RH  098%=      5-min Rain = 0
KSLS 090905Z 24008KT 05/05 A3025 RMK A01 T00530048  RH  098%=      5-min Rain = 0
KSLS 090910Z 24008KT 05/05 A3025 RMK A01 T00530048  RH  098%=      5-min Rain = 0
KSLS 090915Z 25007KT 05/05 A3025 RMK A01 T00520047  RH  098%=      5-min Rain = 0
KSLS 090920Z 25007KT 05/05 A3025 RMK A01 T00520047  RH  098%=      5-min Rain = 0
KSLS 090925Z 25006KT 05/05 A3025 RMK A01 T00510046  RH  098%=      5-min Rain = 0
KSLS 090930Z 26007KT 05/05 A3025 RMK A01 T00510046  RH  098%=      5-min Rain = 0
KSLS 090935Z 26006KT 05/05 A3025 RMK A01 T00500045  RH  098%=      5-min Rain = 0
KSLS 090940Z 26006KT 05/04 A3024 RMK A01 T00490044  RH  098%=      5-min Rain = 0
KSLS 090945Z 26007KT 05/04 A3024 RMK A01 T00480043  RH  098%=      5-min Rain = 0
KSLS 090950Z 26007KT 05/04 A3024 RMK A01 T00480043  RH  098%=      5-min Rain = 0
KSLS 090955Z 27006KT 05/04 A3024 RMK A01 T00480043  RH  098%=      5-min Rain = 0
KSLS 091000Z 26006KT 05/04 A3024 RMK A01 T00470042  RH  098%=      5-min Rain = 0
KSLS 091005Z 25007KT 05/04 A3024 RMK A01 T00470042  RH  098%=      5-min Rain = 0
KSLS 091010Z 25007KT 05/04 A3024 RMK A01 T00470043  RH  098%=      5-min Rain = 0
KSLS 091015Z 25007KT 05/04 A3024 RMK A01 T00460042  RH  098%=      5-min Rain = 0
KSLS 091020Z 25006KT 05/04 A3024 RMK A01 T00450041  RH  098%=      5-min Rain = 0
KSLS 091025Z 25006KT 05/04 A3024 RMK A01 T00450041  RH  099%=      5-min Rain = 0
KSLS 091030Z 25007KT 05/04 A3024 RMK A01 T00450041  RH  099%=      5-min Rain = 0
KSLS 091035Z 25006KT 04/04 A3024 RMK A01 T00440040  RH  099%=      5-min Rain = 0
KSLS 091040Z 26005KT 04/04 A3024 RMK A01 T00420038  RH  099%=      5-min Rain = 0
KSLS 091045Z 27005KT 04/04 A3024 RMK A01 T00430039  RH  099%=      5-min Rain = 0
KSLS 091050Z 27006KT 04/04 A3024 RMK A01 T00420039  RH  099%=      5-min Rain = 0
KSLS 091055Z 27006KT 04/04 A3024 RMK A01 T00410038  RH  099%=      5-min Rain = 0
KSLS 091100Z 27005KT 04/04 A3024 RMK A01 T00400036  RH  099%=      5-min Rain = 0
KSLS 091105Z 27006KT 04/04 A3024 RMK A01 T00400036  RH  099%=      5-min Rain = 0
KSLS 091110Z 27006KT 04/04 A3024 RMK A01 T00400036  RH  099%=      5-min Rain = 0
KSLS 091115Z 27006KT 04/04 A3024 RMK A01 T00390036  RH  099%=      5-min Rain = 0
KSLS 091120Z 27006KT 04/04 A3024 RMK A01 T00390036  RH  099%=      5-min Rain = 0
KSLS 091125Z 27006KT 04/04 A3024 RMK A01 T00400037  RH  099%=      5-min Rain = 0
KSLS 091130Z 27006KT 04/04 A3024 RMK A01 T00390036  RH  099%=      5-min Rain = 0
KSLS 091135Z 27006KT 04/04 A3024 RMK A01 T00390035  RH  099%=      5-min Rain = 0
KSLS 091140Z 26006KT 04/04 A3024 RMK A01 T00380035  RH  099%=      5-min Rain = 0
KSLS 091145Z 26006KT 04/03 A3024 RMK A01 T00370034  RH  099%=      5-min Rain = 0
KSLS 091150Z 25007KT 04/03 A3024 RMK A01 T00370034  RH  099%=      5-min Rain = 0
KSLS 091155Z 25008KT 04/03 A3024 RMK A01 T00370034  RH  099%=      5-min Rain = 0
KSLS 091200Z 26007KT 04/03 A3024 RMK A01 T00360033  RH  099%=      5-min Rain = 0
KSLS 091205Z 26007KT 04/03 A3024 RMK A01 T00350033  RH  099%=      5-min Rain = 0
KSLS 091210Z 26006KT 04/03 A3024 RMK A01 T00360033  RH  099%=      5-min Rain = 0
KSLS 091215Z 26005KT 04/03 A3024 RMK A01 T00350032  RH  099%=      5-min Rain = 0
KSLS 091220Z 27005KT 03/03 A3024 RMK A01 T00340032  RH  099%=      5-min Rain = 0
KSLS 091225Z 27006KT 03/03 A3024 RMK A01 T00340031  RH  099%=      5-min Rain = 0
KSLS 091230Z 27006KT 03/03 A3024 RMK A01 T00340032  RH  099%=      5-min Rain = 0
KSLS 091235Z 26006KT 03/03 A3024 RMK A01 T00330031  RH  099%=      5-min Rain = 0
KSLS 091240Z 26006KT 03/03 A3024 RMK A01 T00320030  RH  099%=      5-min Rain = 0
KSLS 091245Z 26006KT 03/03 A3024 RMK A01 T00320029  RH  099%=      5-min Rain = 0
KSLS 091250Z 25006KT 03/03 A3024 RMK A01 T00310029  RH  099%=      5-min Rain = 0
KSLS 091255Z 25006KT 03/03 A3024 RMK A01 T00320029  RH  100%=      5-min Rain = 0
KSLS 091300Z 25007KT 03/03 A3025 RMK A01 T00330031  RH  100%=      5-min Rain = 0
KSLS 091305Z 25007KT 03/03 A3025 RMK A01 T00340032  RH  100%=      5-min Rain = 0
KSLS 091310Z 26007KT 03/03 A3025 RMK A01 T00340031  RH  100%=      5-min Rain = 0
KSLS 091315Z 26007KT 03/03 A3025 RMK A01 T00340032  RH  100%=      5-min Rain = 0
KSLS 091320Z 26007KT 03/03 A3025 RMK A01 T00340032  RH  100%=      5-min Rain = 0
KSLS 091325Z 26007KT 03/03 A3025 RMK A01 T00340031  RH  099%=      5-min Rain = 0
KSLS 091330Z 26007KT 04/03 A3025 RMK A01 T00350033  RH  099%=      5-min Rain = 0
KSLS 091335Z 26007KT 04/03 A3025 RMK A01 T00370034  RH  099%=      5-min Rain = 0
KSLS 091340Z 26008KT 04/04 A3025 RMK A01 T00380035  RH  099%=      5-min Rain = 0
KSLS 091345Z 26007KT 04/04 A3025 RMK A01 T00410037  RH  099%=      5-min Rain = 0
KSLS 091350Z 26007KT 04/04 A3025 RMK A01 T00430039  RH  099%=      5-min Rain = 0
KSLS 091355Z 27007KT 04/04 A3025 RMK A01 T00440040  RH  098%=      5-min Rain = 0
KSLS 091400Z 27006KT 05/04 A3025 RMK A01 T00460040  RH  098%=      5-min Rain = 0
KSLS 091405Z 28006KT 05/04 A3025 RMK A01 T00470041  RH  097%=      5-min Rain = 0
KSLS 091410Z 27006KT 05/04 A3025 RMK A01 T00480041  RH  097%=      5-min Rain = 0
KSLS 091415Z 27006KT 05/04 A3025 RMK A01 T00490042  RH  097%=      5-min Rain = 0
KSLS 091420Z 26006KT 05/05 A3025 RMK A01 T00520045  RH  097%=      5-min Rain = 0
KSLS 091425Z 26007KT 05/05 A3026 RMK A01 T00540047  RH  097%=      5-min Rain = 0
KSLS 091430Z 27007KT 06/05 A3026 RMK A01 T00570049  RH  096%=      5-min Rain = 0
KSLS 091435Z 27008KT 06/05 A3026 RMK A01 T00600051  RH  095%=      5-min Rain = 0
KSLS 091440Z 27008KT 06/05 A3026 RMK A01 T00630052  RH  094%=      5-min Rain = 0
KSLS 091445Z 27008KT 07/05 A3026 RMK A01 T00660054  RH  093%=      5-min Rain = 0
KSLS 091450Z 28009KT 07/06 A3026 RMK A01 T00690055  RH  092%=      5-min Rain = 0
KSLS 091455Z 28007KT 07/06 A3027 RMK A01 T00720058  RH  092%=      5-min Rain = 0
KSLS 091500Z 28008KT 07/06 A3026 RMK A01 T00730057  RH  091%=      5-min Rain = 0
KSLS 091505Z 28008KT 08/06 A3027 RMK A01 T00750060  RH  091%=      5-min Rain = 0
KSLS 091510Z 29007KT 08/06 A3027 RMK A01 T00780062  RH  091%=      5-min Rain = 0
KSLS 091515Z 28007KT 08/07 A3027 RMK A01 T00810065  RH  091%=      5-min Rain = 0
KSLS 091520Z 28008KT 08/07 A3027 RMK A01 T00840066  RH  090%=      5-min Rain = 0
KSLS 091525Z 29008KT 09/07 A3027 RMK A01 T00870068  RH  089%=      5-min Rain = 0
KSLS 091530Z 29007KT 09/07 A3027 RMK A01 T00890068  RH  088%=      5-min Rain = 0
KSLS 091535Z 29008KT 09/07 A3027 RMK A01 T00930072  RH  088%=      5-min Rain = 0
KSLS 091540Z 29008KT 10/07 A3027 RMK A01 T00960073  RH  087%=      5-min Rain = 0
KSLS 091545Z 29007KT 10/08 A3027 RMK A01 T00990075  RH  086%=      5-min Rain = 0
KSLS 091550Z 29007KT 10/08 A3027 RMK A01 T01020076  RH  085%=      5-min Rain = 0
KSLS 091555Z 28005KT 10/08 A3027 RMK A01 T01030076  RH  085%=      5-min Rain = 0
KSLS 091600Z 27005KT 11/08 A3027 RMK A01 T01080081  RH  085%=      5-min Rain = 0
KSLS 091605Z 28007KT 11/08 A3027 RMK A01 T01110082  RH  084%=      5-min Rain = 0
KSLS 091610Z 28006KT 11/08 A3027 RMK A01 T01140083  RH  083%=      5-min Rain = 0
KSLS 091615Z 27006KT 12/08 A3026 RMK A01 T01150082  RH  082%=      5-min Rain = 0
KSLS 091620Z 28005KT 12/09 A3027 RMK A01 T01180085  RH  082%=      5-min Rain = 0
KSLS 091625Z 28004KT 12/09 A3027 RMK A01 T01210086  RH  080%=      5-min Rain = 0
KSLS 091630Z 29005KT 13/09 A3026 RMK A01 T01260090  RH  080%=      5-min Rain = 0
KSLS 091635Z 28006KT 13/09 A3026 RMK A01 T01270087  RH  077%=      5-min Rain = 0
KSLS 091640Z 27006KT 13/09 A3026 RMK A01 T01320089  RH  076%=      5-min Rain = 0
KSLS 091645Z 27007KT 14/09 A3026 RMK A01 T01370092  RH  076%=      5-min Rain = 0
KSLS 091650Z 27006KT 14/09 A3026 RMK A01 T01380091  RH  074%=      5-min Rain = 0
KSLS 091655Z 27007KT 14/09 A3026 RMK A01 T01410091  RH  073%=      5-min Rain = 0
KSLS 091700Z 26007KT 14/09 A3026 RMK A01 T01420092  RH  073%=      5-min Rain = 0
KSLS 091705Z 27007KT 14/09 A3026 RMK A01 T01440093  RH  072%=      5-min Rain = 0
KSLS 091710Z 26007KT 15/10 A3026 RMK A01 T01470096  RH  073%=      5-min Rain = 0
KSLS 091715Z 26007KT 15/10 A3026 RMK A01 T01490095  RH  071%=      5-min Rain = 0
KSLS 091720Z 25007KT 15/10 A3026 RMK A01 T01510095  RH  070%=      5-min Rain = 0
KSLS 091725Z 26008KT 15/09 A3025 RMK A01 T01530094  RH  069%=      5-min Rain = 0
KSLS 091730Z 25008KT 15/09 A3025 RMK A01 T01540094  RH  069%=      5-min Rain = 0
KSLS 091735Z 25008KT 15/09 A3025 RMK A01 T01540094  RH  068%=      5-min Rain = 0
KSLS 091740Z 25008KT 16/09 A3024 RMK A01 T01550093  RH  068%=      5-min Rain = 0
KSLS 091745Z 25008KT 16/10 A3024 RMK A01 T01570097  RH  069%=      5-min Rain = 0
KSLS 091750Z 24010KT 16/10 A3024 RMK A01 T01600096  RH  067%=      5-min Rain = 0
KSLS 091755Z 24011KT 16/09 A3023 RMK A01 T01600091  RH  064%=      5-min Rain = 0
KSLS 091800Z 23010KT 16/09 A3023 RMK A01 T01630093  RH  064%=      5-min Rain = 0
KSLS 091805Z 24009KT 16/10 A3023 RMK A01 T01640095  RH  064%=      5-min Rain = 0
KSLS 091810Z 24008KT 17/10 A3023 RMK A01 T01690100  RH  065%=      5-min Rain = 0
KSLS 091815Z 25009KT 17/10 A3023 RMK A01 T01700097  RH  063%=      5-min Rain = 0
KSLS 091820Z 24008KT 17/10 A3022 RMK A01 T01730099  RH  063%=      5-min Rain = 0
KSLS 091825Z 24010KT 18/10 A3022 RMK A01 T01750096  RH  061%=      5-min Rain = 0
KSLS 091830Z 24009KT 18/09 A3022 RMK A01 T01760094  RH  060%=      5-min Rain = 0
KSLS 091835Z 25008KT 18/10 A3022 RMK A01 T01780098  RH  060%=      5-min Rain = 0
KSLS 091840Z 23011KT 18/10 A3021 RMK A01 T01800097  RH  059%=      5-min Rain = 0
KSLS 091845Z 23009KT 18/10 A3021 RMK A01 T01810095  RH  058%=      5-min Rain = 0
KSLS 091850Z 23009KT 18/10 A3021 RMK A01 T01840098  RH  058%=      5-min Rain = 0
KSLS 091855Z 24009KT 19/10 A302 RMK A01 T01850095  RH  057%=      5-min Rain = 0
KSLS 091900Z 24010KT 19/09 A302 RMK A01 T01850090  RH  055%=      5-min Rain = 0
KSLS 091905Z 24009KT 19/09 A302 RMK A01 T01870091  RH  054%=      5-min Rain = 0
KSLS 091910Z 24008KT 19/10 A3019 RMK A01 T01890095  RH  055%=      5-min Rain = 0
KSLS 091915Z 24010KT 19/09 A3019 RMK A01 T01900090  RH  053%=      5-min Rain = 0
KSLS 091920Z 24010KT 19/09 A3019 RMK A01 T01900090  RH  053%=      5-min Rain = 0
KSLS 091925Z 24009KT 19/09 A3018 RMK A01 T01910092  RH  054%=      5-min Rain = 0
KSLS 091930Z 23009KT 19/09 A3018 RMK A01 T01930094  RH  053%=      5-min Rain = 0
KSLS 091935Z 24009KT 20/09 A3018 RMK A01 T01950092  RH  052%=      5-min Rain = 0
KSLS 091940Z 24009KT 20/09 A3018 RMK A01 T01970092  RH  052%=      5-min Rain = 0
KSLS 091945Z 23009KT 20/09 A3017 RMK A01 T01950088  RH  051%=      5-min Rain = 0
KSLS 091950Z 23010KT 20/09 A3017 RMK A01 T01980092  RH  051%=      5-min Rain = 0
KSLS 091955Z 24009KT 20/09 A3017 RMK A01 T01980093  RH  051%=      5-min Rain = 0
KSLS 092000Z 24008KT 20/09 A3017 RMK A01 T02000094  RH  051%=      5-min Rain = 0
KSLS 092005Z 23009KT 20/09 A3016 RMK A01 T02000086  RH  048%=      5-min Rain = 0
KSLS 092010Z 23008KT 20/09 A3016 RMK A01 T02030087  RH  048%=      5-min Rain = 0
KSLS 092015Z 23010KT 20/08 A3016 RMK A01 T02030082  RH  046%=      5-min Rain = 0
KSLS 092020Z 24010KT 20/08 A3016 RMK A01 T02030075  RH  044%=      5-min Rain = 0
KSLS 092025Z 24009KT 20/08 A3016 RMK A01 T02040076  RH  044%=      5-min Rain = 0
KSLS 092030Z 23009KT 21/08 A3016 RMK A01 T02060075  RH  044%=      5-min Rain = 0
KSLS 092035Z 23010KT 21/07 A3015 RMK A01 T02080074  RH  043%=      5-min Rain = 0
KSLS 092040Z 23009KT 21/07 A3015 RMK A01 T02060074  RH  043%=      5-min Rain = 0
KSLS 092045Z 23007KT 21/08 A3015 RMK A01 T02090079  RH  044%=      5-min Rain = 0
KSLS 092050Z 23008KT 21/08 A3015 RMK A01 T02080076  RH  043%=      5-min Rain = 0
KSLS 092055Z 22008KT 21/08 A3015 RMK A01 T02080077  RH  043%=      5-min Rain = 0
KSLS 092100Z 24009KT 21/07 A3015 RMK A01 T02080073  RH  042%=      5-min Rain = 0
KSLS 092105Z 23009KT 21/08 A3014 RMK A01 T02090075  RH  043%=      5-min Rain = 0
KSLS 092110Z 22007KT 21/07 A3014 RMK A01 T02100073  RH  042%=      5-min Rain = 0
KSLS 092115Z 23009KT 21/07 A3014 RMK A01 T02100070  RH  041%=      5-min Rain = 0
KSLS 092120Z 22008KT 21/08 A3014 RMK A01 T02100076  RH  043%=      5-min Rain = 0
KSLS 092125Z 22007KT 21/08 A3014 RMK A01 T02110083  RH  044%=      5-min Rain = 0
KSLS 092130Z 23007KT 21/07 A3014 RMK A01 T02110073  RH  042%=      5-min Rain = 0
KSLS 092135Z 25007KT 21/07 A3014 RMK A01 T02110070  RH  040%=      5-min Rain = 0
KSLS 092140Z 23007KT 21/07 A3013 RMK A01 T02110070  RH  041%=      5-min Rain = 0
KSLS 092145Z 20008KT 21/07 A3013 RMK A01 T02110073  RH  042%=      5-min Rain = 0
KSLS 092150Z 21008KT 21/07 A3013 RMK A01 T02100071  RH  041%=      5-min Rain = 0
KSLS 092155Z 23007KT 21/07 A3013 RMK A01 T02090073  RH  042%=      5-min Rain = 0
KSLS 092200Z 21008KT 21/07 A3013 RMK A01 T02090071  RH  041%=      5-min Rain = 0
KSLS 092205Z 22007KT 21/07 A3013 RMK A01 T02090069  RH  041%=      5-min Rain = 0
KSLS 092210Z 21007KT 21/07 A3013 RMK A01 T02100072  RH  041%=      5-min Rain = 0
KSLS 092215Z 21007KT 21/07 A3013 RMK A01 T02090068  RH  041%=      5-min Rain = 0
KSLS 092220Z 21008KT 21/07 A3013 RMK A01 T02080069  RH  041%=      5-min Rain = 0
KSLS 092225Z 21008KT 21/07 A3013 RMK A01 T02070067  RH  041%=      5-min Rain = 0
KSLS 092230Z 20008KT 21/07 A3012 RMK A01 T02060067  RH  041%=      5-min Rain = 0
KSLS 092235Z 21006KT 21/07 A3012 RMK A01 T02060068  RH  041%=      5-min Rain = 0
KSLS 092240Z 22007KT 20/07 A3012 RMK A01 T02030066  RH  041%=      5-min Rain = 0
KSLS 092245Z 21008KT 20/05 A3012 RMK A01 T02020054  RH  039%=      5-min Rain = 0
KSLS 092250Z 21009KT 20/04 A3012 RMK A01 T02000040  RH  035%=      5-min Rain = 0
KSLS 092255Z 21007KT 20/05 A3012 RMK A01 T01990048  RH  038%=      5-min Rain = 0
KSLS 092300Z 21007KT 19/06 A3012 RMK A01 T01930059  RH  042%=      5-min Rain = 0
KSLS 092305Z 20007KT 19/07 A3012 RMK A01 T01870073  RH  048%=      5-min Rain = 0
KSLS 092310Z 20007KT 18/08 A3012 RMK A01 T01820081  RH  052%=      5-min Rain = 0
KSLS 092315Z 20008KT 18/08 A3012 RMK A01 T01770082  RH  055%=      5-min Rain = 0
KSLS 092320Z 20007KT 17/08 A3012 RMK A01 T01720081  RH  056%=      5-min Rain = 0
KSLS 092325Z 20007KT 17/08 A3012 RMK A01 T01650083  RH  059%=      5-min Rain = 0
KSLS 092330Z 20007KT 16/08 A3012 RMK A01 T01590083  RH  062%=      5-min Rain = 0
KSLS 092335Z 20007KT 16/08 A3012 RMK A01 T01550083  RH  063%=      5-min Rain = 0
KSLS 092340Z 20007KT 15/08 A3012 RMK A01 T01510083  RH  065%=      5-min Rain = 0
KSLS 092345Z 20006KT 15/08 A3012 RMK A01 T01460084  RH  067%=      5-min Rain = 0
KSLS 092350Z 19006KT 14/09 A3012 RMK A01 T01390086  RH  072%=      5-min Rain = 0
KSLS 092355Z 18007KT 14/09 A3012 RMK A01 T01380090  RH  074%=      5-min Rain = 0
KSLS 100000Z 18008KT 13/09 A3012 RMK A01 T01340089  RH  075%=      5-min Rain = 0
KSLS 100005Z 18008KT 13/09 A3012 RMK A01 T01290088  RH  077%=      5-min Rain = 0
KSLS 100010Z 18008KT 13/09 A3012 RMK A01 T01290087  RH  077%=      5-min Rain = 0
KSLS 100015Z 18007KT 13/09 A3012 RMK A01 T01260086  RH  078%=      5-min Rain = 0
KSLS 100020Z 18008KT 12/09 A3012 RMK A01 T01230087  RH  080%=      5-min Rain = 0
KSLS 100025Z 18008KT 12/09 A3012 RMK A01 T01220089  RH  082%=      5-min Rain = 0
KSLS 100030Z 18007KT 12/09 A3012 RMK A01 T01190089  RH  083%=      5-min Rain = 0
KSLS 100035Z 18007KT 12/09 A3012 RMK A01 T01170089  RH  085%=      5-min Rain = 0
KSLS 100040Z 18008KT 12/09 A3012 RMK A01 T01160091  RH  086%=      5-min Rain = 0
KSLS 100045Z 18009KT 12/09 A3012 RMK A01 T01160092  RH  087%=      5-min Rain = 0
KSLS 100050Z 18009KT 12/09 A3013 RMK A01 T01170093  RH  087%=      5-min Rain = 0
KSLS 100055Z 18009KT 12/09 A3013 RMK A01 T01160093  RH  087%=      5-min Rain = 0
KSLS 100100Z 19009KT 12/09 A3013 RMK A01 T01170093  RH  087%=      5-min Rain = 0
KSLS 100105Z 19009KT 12/09 A3013 RMK A01 T01180093  RH  086%=      5-min Rain = 0
KSLS 100110Z 19009KT 12/09 A3013 RMK A01 T01180092  RH  086%=      5-min Rain = 0
KSLS 100115Z 19009KT 12/09 A3013 RMK A01 T01170091  RH  086%=      5-min Rain = 0
KSLS 100120Z 19009KT 12/09 A3013 RMK A01 T01150090  RH  086%=      5-min Rain = 0
KSLS 100125Z 19009KT 12/09 A3013 RMK A01 T01150090  RH  086%=      5-min Rain = 0
KSLS 100130Z 19010KT 12/09 A3013 RMK A01 T01170090  RH  085%=      5-min Rain = 0
KSLS 100135Z 19010KT 12/09 A3013 RMK A01 T01170090  RH  085%=      5-min Rain = 0
KSLS 100140Z 19009KT 12/09 A3013 RMK A01 T01150089  RH  085%=      5-min Rain = 0
KSLS 100145Z 19009KT 11/09 A3013 RMK A01 T01130087  RH  086%=      5-min Rain = 0
KSLS 100150Z 19010KT 11/09 A3013 RMK A01 T01110086  RH  086%=      5-min Rain = 0
KSLS 100155Z 19010KT 11/09 A3013 RMK A01 T01120086  RH  085%=      5-min Rain = 0
KSLS 100200Z 19010KT 11/09 A3013 RMK A01 T01130085  RH  084%=      5-min Rain = 0
KSLS 100205Z 19010KT 11/09 A3013 RMK A01 T01140085  RH  083%=      5-min Rain = 0
KSLS 100210Z 19010KT 11/08 A3013 RMK A01 T01130084  RH  083%=      5-min Rain = 0
KSLS 100215Z 19010KT 11/08 A3012 RMK A01 T01130083  RH  083%=      5-min Rain = 0
KSLS 100220Z 19010KT 11/08 A3012 RMK A01 T01140083  RH  083%=      5-min Rain = 0
KSLS 100225Z 19010KT 11/08 A3012 RMK A01 T01130082  RH  082%=      5-min Rain = 0
KSLS 100230Z 19010KT 11/08 A3012 RMK A01 T01140081  RH  081%=      5-min Rain = 0
KSLS 100235Z 19010KT 11/08 A3012 RMK A01 T01130080  RH  081%=      5-min Rain = 0
KSLS 100240Z 20010KT 11/08 A3012 RMK A01 T01140080  RH  081%=      5-min Rain = 0
KSLS 100245Z 20010KT 11/08 A3012 RMK A01 T01140080  RH  081%=      5-min Rain = 0
KSLS 100250Z 20010KT 12/08 A3012 RMK A01 T01150082  RH  081%=      5-min Rain = 0
KSLS 100255Z 20011KT 12/09 A3012 RMK A01 T01160085  RH  082%=      5-min Rain = 0
KSLS 100300Z 20011KT 12/09 A3012 RMK A01 T01190087  RH  082%=      5-min Rain = 0
KSLS 100305Z 20010KT 12/09 A3012 RMK A01 T01180088  RH  083%=      5-min Rain = 0
KSLS 100310Z 20009KT 12/09 A3012 RMK A01 T01180088  RH  084%=      5-min Rain = 0
KSLS 100315Z 19009KT 12/09 A3012 RMK A01 T01170088  RH  084%=      5-min Rain = 0
KSLS 100320Z 19009KT 12/09 A3012 RMK A01 T01150088  RH  084%=      5-min Rain = 0
KSLS 100325Z 19010KT 11/09 A3012 RMK A01 T01140087  RH  085%=      5-min Rain = 0
KSLS 100330Z 20010KT 11/09 A3012 RMK A01 T01130087  RH  085%=      5-min Rain = 0
KSLS 100335Z 20009KT 11/09 A3012 RMK A01 T01110086  RH  085%=      5-min Rain = 0
KSLS 100340Z 20009KT 11/09 A3012 RMK A01 T01100085  RH  086%=      5-min Rain = 0
KSLS 100345Z 20009KT 11/08 A3011 RMK A01 T01080084  RH  086%=      5-min Rain = 0
KSLS 100350Z 20009KT 11/08 A3011 RMK A01 T01070084  RH  087%=      5-min Rain = 0
KSLS 100355Z 20009KT 11/09 A3011 RMK A01 T01100085  RH  086%=      5-min Rain = 0
KSLS 100400Z 20009KT 11/09 A3011 RMK A01 T01110085  RH  085%=      5-min Rain = 0
KSLS 100405Z 19009KT 11/09 A3011 RMK A01 T01110085  RH  086%=      5-min Rain = 0
KSLS 100410Z 20009KT 11/08 A3011 RMK A01 T01090084  RH  086%=      5-min Rain = 0
KSLS 100415Z 20009KT 11/09 A3011 RMK A01 T01090085  RH  086%=      5-min Rain = 0
KSLS 100420Z 20010KT 11/09 A3011 RMK A01 T01100085  RH  086%=      5-min Rain = 0
KSLS 100425Z 20010KT 11/09 A3011 RMK A01 T01110085  RH  085%=      5-min Rain = 0
KSLS 100430Z 20009KT 11/09 A3011 RMK A01 T01110085  RH  085%=      5-min Rain = 0
KSLS 100435Z 20008KT 11/08 A3011 RMK A01 T01090084  RH  086%=      5-min Rain = 0
KSLS 100440Z 20009KT 11/08 A3011 RMK A01 T01080083  RH  086%=      5-min Rain = 0
KSLS 100445Z 20009KT 11/08 A3011 RMK A01 T01100084  RH  085%=      5-min Rain = 0
KSLS 100450Z 20010KT 11/09 A3011 RMK A01 T01120085  RH  085%=      5-min Rain = 0
KSLS 100455Z 20009KT 11/08 A3011 RMK A01 T01100084  RH  085%=      5-min Rain = 0
KSLS 100500Z 20010KT 11/08 A3011 RMK A01 T01080083  RH  086%=      5-min Rain = 0
KSLS 100505Z 20010KT 11/08 A3011 RMK A01 T01100083  RH  085%=      5-min Rain = 0
KSLS 100510Z 20010KT 11/08 A3011 RMK A01 T01100083  RH  084%=      5-min Rain = 0
KSLS 100515Z 21009KT 11/08 A3011 RMK A01 T01090082  RH  085%=      5-min Rain = 0
KSLS 100520Z 20009KT 11/08 A3011 RMK A01 T01080082  RH  085%=      5-min Rain = 0
KSLS 100525Z 21010KT 11/08 A301 RMK A01 T01080081  RH  085%=      5-min Rain = 0
KSLS 100530Z 20010KT 11/08 A301 RMK A01 T01080081  RH  085%=      5-min Rain = 0
KSLS 100535Z 20009KT 11/08 A301 RMK A01 T01060080  RH  085%=      5-min Rain = 0
KSLS 100540Z 20009KT 10/08 A301 RMK A01 T01040079  RH  086%=      5-min Rain = 0
KSLS 100545Z 20010KT 10/08 A301 RMK A01 T01040081  RH  087%=      5-min Rain = 0
KSLS 100550Z 20010KT 11/08 A3009 RMK A01 T01060081  RH  086%=      5-min Rain = 0
KSLS 100555Z 21009KT 11/08 A3009 RMK A01 T01060080  RH  086%=      5-min Rain = 0

Page generated in 0.0157 seconds.